Mary Bennett — WDC4592 — position and weather

sailwx.info

Track history (hours):
 
Tides and Currents Weather Stations Pressure Air Temp Water Temp Dewpoint Dewpoint Depression Visibility Wind Speed Wind Dir Waves Ship Positions

Mary Bennett

Owner: Savannah Marine Services, Savannah, GA. More information available from US FCC via Universal Licensing System and Coast Guard Vessel Documentation Center.

Last reported at 2015-Aug-24 03:05 UTC. Time now 2015-Aug-28 07:30 UTC.
Position N 32°05' W 081°06'.

Length 21 m; draft 2.3 m.

Type: Tug. MMSI: 367027140.

Date/timePositionNaut miles runAvg speedWind from/ knotsBaromVisibWave heightAir tempDewpointWater temp
2015-Aug-24 03:05N 32°05' W 081°06'2 3.9
2015-Aug-24 02:33N 32°07' W 081°07'0 0.5
2015-Aug-24 01:33N 32°07' W 081°08'0 0.4
2015-Aug-24 00:33N 32°07' W 081°08'0 0.1
2015-Aug-23 23:33N 32°07' W 081°08'0 0.1
2015-Aug-23 22:33N 32°07' W 081°08'0 0.0
2015-Aug-23 21:33N 32°07' W 081°08'0 0.4
2015-Aug-23 20:33N 32°07' W 081°08'0 0.3
2015-Aug-23 19:33N 32°07' W 081°08'0 0.2
2015-Aug-23 18:33N 32°07' W 081°08'0 0.2
2015-Aug-23 17:33N 32°07' W 081°08'0 0.4
2015-Aug-23 16:33N 32°07' W 081°08'0 0.3
2015-Aug-23 15:33N 32°07' W 081°08'0 0.0
2015-Aug-23 14:33N 32°07' W 081°08'0 0.0
2015-Aug-23 13:33N 32°07' W 081°08'0 0.0
2015-Aug-23 12:33N 32°07' W 081°08'3 2.5
2015-Aug-23 11:33N 32°05' W 081°06'  
2015-Aug-20 01:08N 32°05' W 081°06'2 3.1
2015-Aug-20 00:33N 32°05' W 081°04'0 0.3
2015-Aug-19 23:33N 32°05' W 081°04'0 0.1
2015-Aug-19 22:33N 32°05' W 081°04'2 1.6
2015-Aug-19 21:33N 32°05' W 081°06'0 0.0
2015-Aug-19 20:33N 32°05' W 081°06'0 0.0
2015-Aug-19 19:33N 32°05' W 081°06'1 1.5
2015-Aug-19 18:33N 32°05' W 081°04'0 0.0
2015-Aug-19 17:33N 32°05' W 081°04'0 0.4
2015-Aug-19 16:33N 32°05' W 081°04'2 1.8
2015-Aug-19 15:33N 32°05' W 081°06'0 0.0
2015-Aug-19 14:33N 32°05' W 081°06'0 0.0
2015-Aug-19 13:33N 32°05' W 081°06'0 0.0
2015-Aug-19 12:33N 32°05' W 081°06'0 0.0
2015-Aug-19 11:33N 32°05' W 081°06'0 0.0
2015-Aug-19 10:33N 32°05' W 081°06'0 0.0
2015-Aug-19 09:33N 32°05' W 081°06'0 0.0
2015-Aug-19 08:33N 32°05' W 081°06'0 0.0
2015-Aug-19 07:33N 32°05' W 081°06'0 0.0
2015-Aug-19 06:33N 32°05' W 081°06'0 0.0
2015-Aug-19 05:33N 32°05' W 081°06'0 0.0
2015-Aug-19 04:33N 32°05' W 081°06'0 0.0
2015-Aug-19 03:33N 32°05' W 081°06'0 0.0
2015-Aug-19 02:33N 32°05' W 081°06'0 0.0
2015-Aug-19 01:33N 32°05' W 081°06'0 0.0
2015-Aug-19 00:33N 32°05' W 081°06'0 0.0
2015-Aug-18 23:33N 32°05' W 081°06'2 1.6
2015-Aug-18 22:33N 32°05' W 081°04'0 0.2
2015-Aug-18 21:33N 32°05' W 081°04'0 0.0
2015-Aug-18 20:33N 32°05' W 081°04'0 0.0
2015-Aug-18 19:33N 32°05' W 081°04'0 0.2
2015-Aug-18 18:33N 32°05' W 081°04'0 0.0
2015-Aug-18 17:33N 32°05' W 081°04'0 0.1
2015-Aug-18 16:33N 32°05' W 081°04'  
Track history (hours):
 
Tides and Currents Weather Stations Pressure Air Temp Water Temp Dewpoint Dewpoint Depression Visibility Wind Speed Wind Dir Waves Ship Positions

Mary Bennett

Owner: Savannah Marine Services, Savannah, GA. More information available from US FCC via Universal Licensing System and Coast Guard Vessel Documentation Center.

Last reported at 2015-Aug-24 03:05 UTC. Time now 2015-Aug-28 07:30 UTC.
Position N 32°05' W 081°06'.

Length 21 m; draft 2.3 m.

Type: Tug. MMSI: 367027140.

Date/timePositionNaut miles runAvg speedWind from/ knotsBaromVisibWave heightAir tempDewpointWater temp
2015-Aug-24 03:05N 32°05' W 081°06'2 3.9
2015-Aug-24 02:33N 32°07' W 081°07'0 0.5
2015-Aug-24 01:33N 32°07' W 081°08'0 0.4
2015-Aug-24 00:33N 32°07' W 081°08'0 0.1
2015-Aug-23 23:33N 32°07' W 081°08'0 0.1
2015-Aug-23 22:33N 32°07' W 081°08'0 0.0
2015-Aug-23 21:33N 32°07' W 081°08'0 0.4
2015-Aug-23 20:33N 32°07' W 081°08'0 0.3
2015-Aug-23 19:33N 32°07' W 081°08'0 0.2
2015-Aug-23 18:33N 32°07' W 081°08'0 0.2
2015-Aug-23 17:33N 32°07' W 081°08'0 0.4
2015-Aug-23 16:33N 32°07' W 081°08'0 0.3
2015-Aug-23 15:33N 32°07' W 081°08'0 0.0
2015-Aug-23 14:33N 32°07' W 081°08'0 0.0
2015-Aug-23 13:33N 32°07' W 081°08'0 0.0
2015-Aug-23 12:33N 32°07' W 081°08'3 2.5
2015-Aug-23 11:33N 32°05' W 081°06'  
2015-Aug-20 01:08N 32°05' W 081°06'2 3.1
2015-Aug-20 00:33N 32°05' W 081°04'0 0.3
2015-Aug-19 23:33N 32°05' W 081°04'0 0.1
2015-Aug-19 22:33N 32°05' W 081°04'2 1.6
2015-Aug-19 21:33N 32°05' W 081°06'0 0.0
2015-Aug-19 20:33N 32°05' W 081°06'0 0.0
2015-Aug-19 19:33N 32°05' W 081°06'1 1.5
2015-Aug-19 18:33N 32°05' W 081°04'0 0.0
2015-Aug-19 17:33N 32°05' W 081°04'0 0.4
2015-Aug-19 16:33N 32°05' W 081°04'2 1.8
2015-Aug-19 15:33N 32°05' W 081°06'0 0.0
2015-Aug-19 14:33N 32°05' W 081°06'0 0.0
2015-Aug-19 13:33N 32°05' W 081°06'0 0.0
2015-Aug-19 12:33N 32°05' W 081°06'0 0.0
2015-Aug-19 11:33N 32°05' W 081°06'0 0.0
2015-Aug-19 10:33N 32°05' W 081°06'0 0.0
2015-Aug-19 09:33N 32°05' W 081°06'0 0.0
2015-Aug-19 08:33N 32°05' W 081°06'0 0.0
2015-Aug-19 07:33N 32°05' W 081°06'0 0.0
2015-Aug-19 06:33N 32°05' W 081°06'0 0.0
2015-Aug-19 05:33N 32°05' W 081°06'0 0.0
2015-Aug-19 04:33N 32°05' W 081°06'0 0.0
2015-Aug-19 03:33N 32°05' W 081°06'0 0.0
2015-Aug-19 02:33N 32°05' W 081°06'0 0.0
2015-Aug-19 01:33N 32°05' W 081°06'0 0.0
2015-Aug-19 00:33N 32°05' W 081°06'0 0.0
2015-Aug-18 23:33N 32°05' W 081°06'2 1.6
2015-Aug-18 22:33N 32°05' W 081°04'0 0.2
2015-Aug-18 21:33N 32°05' W 081°04'0 0.0
2015-Aug-18 20:33N 32°05' W 081°04'0 0.0
2015-Aug-18 19:33N 32°05' W 081°04'0 0.2
2015-Aug-18 18:33N 32°05' W 081°04'0 0.0
2015-Aug-18 17:33N 32°05' W 081°04'0 0.1
2015-Aug-18 16:33N 32°05' W 081°04'  

Dump ship's entire track history